Time;durP1;ratioP1;P1;durP2;ratioP2;P2;SDS_P1;SDS_P2;PMS_P1;PMS_P2;Temp;Humidity;BMP_temperature;BMP_pressure;BME280_temperature;BME280_humidity;BME280_pressure;Samples;Min_cycle;Max_cycle;Signal;HPM_P1;HPM_P2
2022/07/09 00:00:59;;;;;;;5.47;4.10;;;;;;;;;;5090050;28;20436;-76
2022/07/09 00:03:27;;;;;;;4.77;3.90;;;;;;;;;;5091773;28;20471;-76
2022/07/09 00:05:54;;;;;;;6.57;3.87;;;;;;;;;;5091210;28;20461;-76
2022/07/09 00:08:21;;;;;;;3.70;3.33;;;;;;;;;;5091863;28;20749;-76
2022/07/09 00:10:49;;;;;;;3.90;3.47;;;;;;;;;;5092593;28;20435;-76
2022/07/09 00:13:17;;;;;;;6.67;3.80;;;;;;;;;;5092982;28;20824;-76
2022/07/09 00:15:44;;;;;;;4.33;3.57;;;;;;;;;;5093917;28;20442;-77
2022/07/09 00:18:11;;;;;;;5.77;3.70;;;;;;;;;;5090732;28;20921;-77
2022/07/09 00:20:38;;;;;;;4.70;3.33;;;;;;;;;;5087517;28;20943;-77
2022/07/09 00:23:05;;;;;;;3.83;3.27;;;;;;;;;;5089370;28;20576;-78
2022/07/09 00:25:33;;;;;;;4.03;3.63;;;;;;;;;;5091666;28;20485;-78
2022/07/09 00:28:01;;;;;;;3.77;3.10;;;;;;;;;;5091137;28;20441;-77
2022/07/09 00:30:28;;;;;;;4.00;3.60;;;;;;;;;;5091409;28;20423;-77
2022/07/09 00:32:56;;;;;;;4.00;3.43;;;;;;;;;;5091903;28;20441;-77
2022/07/09 00:35:24;;;;;;;3.70;3.40;;;;;;;;;;5088265;28;20959;-77
2022/07/09 00:37:51;;;;;;;8.73;3.43;;;;;;;;;;5087330;28;20917;-77
2022/07/09 00:40:18;;;;;;;4.80;3.63;;;;;;;;;;5089953;28;20791;-78
2022/07/09 00:42:45;;;;;;;4.40;3.90;;;;;;;;;;5091262;28;20458;-77
2022/07/09 00:45:14;;;;;;;6.63;3.57;;;;;;;;;;5090848;28;20422;-77
2022/07/09 00:47:41;;;;;;;8.57;3.60;;;;;;;;;;5092162;28;20410;-77
2022/07/09 00:50:09;;;;;;;8.33;4.00;;;;;;;;;;5091596;28;20442;-77
2022/07/09 00:52:37;;;;;;;4.10;3.70;;;;;;;;;;5092876;28;20434;-76
2022/07/09 00:55:04;;;;;;;8.30;3.80;;;;;;;;;;5093599;28;20526;-77
2022/07/09 00:57:32;;;;;;;7.20;3.97;;;;;;;;;;5088301;28;20458;-77
2022/07/09 00:59:59;;;;;;;5.47;3.77;;;;;;;;;;5087155;28;20447;-77
2022/07/09 01:02:28;;;;;;;9.43;4.13;;;;;;;;;;5088410;28;20497;-77
2022/07/09 01:04:55;;;;;;;3.50;3.20;;;;;;;;;;5091176;28;20796;-77
2022/07/09 01:07:22;;;;;;;5.47;3.97;;;;;;;;;;5090885;28;20511;-76
2022/07/09 01:09:49;;;;;;;7.17;3.77;;;;;;;;;;5091726;28;20414;-77
2022/07/09 01:12:16;;;;;;;5.43;3.10;;;;;;;;;;5091383;28;20500;-79
2022/07/09 01:14:44;;;;;;;6.97;3.93;;;;;;;;;;5092636;28;20434;-78
2022/07/09 01:17:11;;;;;;;4.60;3.37;;;;;;;;;;5093296;28;20444;-77
2022/07/09 01:19:39;;;;;;;3.80;3.40;;;;;;;;;;5089637;28;20436;-78
2022/07/09 01:22:09;;;;;;;6.37;3.50;;;;;;;;;;5086598;28;20497;-78
2022/07/09 01:24:36;;;;;;;6.77;3.23;;;;;;;;;;5089479;28;20435;-76
2022/07/09 01:27:04;;;;;;;6.53;4.27;;;;;;;;;;5090928;28;20945;-78
2022/07/09 01:29:31;;;;;;;10.23;3.93;;;;;;;;;;5090507;28;20463;-77
2022/07/09 01:31:58;;;;;;;6.60;3.80;;;;;;;;;;5094468;28;20558;-78
2022/07/09 01:34:25;;;;;;;6.10;4.07;;;;;;;;;;5095122;28;20930;-76
2022/07/09 01:36:52;;;;;;;4.27;3.87;;;;;;;;;;5096067;28;20806;-77
2022/07/09 01:39:21;;;;;;;5.30;4.50;;;;;;;;;;5097098;28;20447;-76
2022/07/09 01:41:48;;;;;;;4.20;3.80;;;;;;;;;;5093696;28;20412;-76
2022/07/09 01:44:15;;;;;;;4.30;3.80;;;;;;;;;;5090197;28;20896;-76
2022/07/09 01:46:42;;;;;;;7.23;4.87;;;;;;;;;;5092775;28;20459;-77
2022/07/09 01:49:10;;;;;;;7.03;4.33;;;;;;;;;;5094620;28;20529;-77
2022/07/09 01:51:37;;;;;;;6.47;4.03;;;;;;;;;;5093950;28;20441;-76
2022/07/09 01:54:04;;;;;;;7.40;4.37;;;;;;;;;;5094604;28;20421;-76
2022/07/09 01:56:34;;;;;;;9.10;4.97;;;;;;;;;;5094717;28;20441;-76
2022/07/09 01:59:02;;;;;;;8.30;5.43;;;;;;;;;;5094330;28;20963;-77
2022/07/09 02:01:29;;;;;;;7.13;4.47;;;;;;;;;;5096674;28;20526;-77
2022/07/09 02:03:56;;;;;;;6.20;4.80;;;;;;;;;;5093976;28;20813;-76
2022/07/09 02:06:23;;;;;;;5.17;4.57;;;;;;;;;;5089941;28;20810;-77
2022/07/09 02:08:52;;;;;;;5.67;4.97;;;;;;;;;;5091656;28;20539;-77
2022/07/09 02:11:19;;;;;;;8.17;5.13;;;;;;;;;;5093997;28;20440;-77
2022/07/09 02:13:47;;;;;;;5.73;4.30;;;;;;;;;;5093518;28;20793;-77
2022/07/09 02:16:14;;;;;;;9.70;4.67;;;;;;;;;;5094150;28;20460;-76
2022/07/09 02:18:42;;;;;;;5.00;4.03;;;;;;;;;;5094524;28;20449;-77
2022/07/09 02:21:09;;;;;;;5.40;4.80;;;;;;;;;;5095159;28;20455;-77
2022/07/09 02:23:36;;;;;;;6.40;4.10;;;;;;;;;;5095880;28;20471;-77
2022/07/09 02:26:03;;;;;;;7.07;5.33;;;;;;;;;;5093858;28;20464;-77
2022/07/09 02:28:31;;;;;;;7.93;5.07;;;;;;;;;;5089886;28;20428;-77
2022/07/09 02:30:59;;;;;;;8.00;5.60;;;;;;;;;;5090789;28;20459;-77
2022/07/09 02:33:26;;;;;;;6.30;4.70;;;;;;;;;;5093684;28;20498;-77
2022/07/09 02:35:54;;;;;;;5.13;4.53;;;;;;;;;;5092983;28;20456;-76
2022/07/09 02:38:21;;;;;;;6.80;5.73;;;;;;;;;;5093487;28;20419;-77
2022/07/09 02:40:48;;;;;;;7.10;4.73;;;;;;;;;;5094087;28;20836;-77
2022/07/09 02:43:16;;;;;;;6.07;5.13;;;;;;;;;;5094187;28;20505;-76
2022/07/09 02:45:43;;;;;;;7.23;5.37;;;;;;;;;;5095695;28;20954;-76
2022/07/09 02:48:11;;;;;;;5.97;4.70;;;;;;;;;;5093831;28;20447;-76
2022/07/09 02:50:42;;;;;;;9.43;5.77;;;;;;;;;;5089206;28;20412;-76
2022/07/09 02:53:09;;;;;;;7.00;4.80;;;;;;;;;;5090267;28;20795;-77
2022/07/09 02:55:36;;;;;;;9.60;5.37;;;;;;;;;;5093288;28;20669;-76
2022/07/09 02:58:04;;;;;;;5.30;4.80;;;;;;;;;;5092621;28;20475;-77
2022/07/09 03:00:31;;;;;;;6.10;5.47;;;;;;;;;;5093422;28;20773;-77
2022/07/09 03:02:58;;;;;;;5.67;4.80;;;;;;;;;;5093698;28;20483;-76
2022/07/09 03:05:26;;;;;;;6.90;4.70;;;;;;;;;;5093440;28;20474;-76
2022/07/09 03:07:54;;;;;;;9.63;5.37;;;;;;;;;;5095842;28;20444;-76
2022/07/09 03:10:21;;;;;;;7.10;5.00;;;;;;;;;;5094130;28;20414;-76
2022/07/09 03:12:48;;;;;;;7.30;4.93;;;;;;;;;;5088743;28;20466;-76
2022/07/09 03:15:16;;;;;;;8.20;5.40;;;;;;;;;;5089489;28;20430;-76
2022/07/09 03:17:43;;;;;;;13.23;5.00;;;;;;;;;;5093105;28;20823;-77
2022/07/09 03:20:11;;;;;;;10.67;5.43;;;;;;;;;;5091997;28;20419;-76
2022/07/09 03:22:40;;;;;;;9.70;5.50;;;;;;;;;;5091880;28;20853;-77
2022/07/09 03:25:08;;;;;;;8.73;5.60;;;;;;;;;;5092063;28;20982;-76
2022/07/09 03:27:35;;;;;;;7.33;5.13;;;;;;;;;;5093132;28;20437;-76
2022/07/09 03:30:04;;;;;;;7.43;5.23;;;;;;;;;;5093751;28;20415;-76
2022/07/09 03:32:31;;;;;;;6.60;4.40;;;;;;;;;;5092541;28;20530;-76
2022/07/09 03:34:58;;;;;;;8.03;4.40;;;;;;;;;;5088399;28;20783;-77
2022/07/09 03:37:26;;;;;;;6.20;4.80;;;;;;;;;;5089520;28;20789;-76
2022/07/09 03:39:54;;;;;;;4.43;4.03;;;;;;;;;;5091705;28;20808;-76
2022/07/09 03:42:21;;;;;;;6.23;4.47;;;;;;;;;;5091644;28;20424;-76
2022/07/09 03:44:48;;;;;;;10.37;5.17;;;;;;;;;;5092442;28;20852;-78
2022/07/09 03:47:16;;;;;;;5.90;4.40;;;;;;;;;;5092642;28;20866;-77
2022/07/09 03:49:43;;;;;;;9.50;5.20;;;;;;;;;;5092887;28;20519;-76
2022/07/09 03:52:10;;;;;;;8.23;4.60;;;;;;;;;;5094614;28;20518;-76
2022/07/09 03:54:37;;;;;;;6.33;4.27;;;;;;;;;;5092830;28;20439;-77
2022/07/09 03:57:06;;;;;;;5.13;4.27;;;;;;;;;;5087896;28;20733;-76
2022/07/09 03:59:33;;;;;;;6.33;4.20;;;;;;;;;;5088881;28;20879;-76
2022/07/09 04:02:01;;;;;;;6.63;4.40;;;;;;;;;;5096594;28;20510;-78
2022/07/09 04:04:28;;;;;;;8.90;5.20;;;;;;;;;;5091558;28;20468;-77
2022/07/09 04:06:55;;;;;;;4.33;3.93;;;;;;;;;;5092291;28;20444;-77
2022/07/09 04:09:23;;;;;;;5.13;4.03;;;;;;;;;;5092456;28;20407;-76
2022/07/09 04:11:50;;;;;;;6.07;4.43;;;;;;;;;;5092238;28;20498;-77
2022/07/09 04:14:19;;;;;;;8.40;3.83;;;;;;;;;;5094000;28;20412;-77
2022/07/09 04:16:47;;;;;;;7.37;4.80;;;;;;;;;;5093579;28;20434;-77
2022/07/09 04:19:14;;;;;;;4.93;3.87;;;;;;;;;;5087828;28;20425;-76
2022/07/09 04:21:41;;;;;;;6.27;4.00;;;;;;;;;;5088610;28;20428;-76
2022/07/09 04:24:09;;;;;;;5.20;4.00;;;;;;;;;;5091133;28;20488;-77
2022/07/09 04:26:36;;;;;;;8.23;4.50;;;;;;;;;;5090658;28;20475;-76
2022/07/09 04:29:03;;;;;;;6.33;3.80;;;;;;;;;;5092134;28;20419;-77
2022/07/09 04:31:31;;;;;;;6.03;4.13;;;;;;;;;;5092006;28;20483;-76
2022/07/09 04:33:59;;;;;;;5.87;4.10;;;;;;;;;;5092028;28;20510;-77
2022/07/09 04:36:27;;;;;;;5.40;4.07;;;;;;;;;;5093758;28;20436;-77
2022/07/09 04:38:55;;;;;;;5.00;4.50;;;;;;;;;;5092872;28;20995;-76
2022/07/09 04:41:23;;;;;;;6.30;3.83;;;;;;;;;;5087070;28;20888;-76
2022/07/09 04:43:50;;;;;;;5.43;4.17;;;;;;;;;;5088389;28;20482;-77
2022/07/09 04:46:17;;;;;;;6.70;4.10;;;;;;;;;;5090936;28;20450;-76
2022/07/09 04:48:46;;;;;;;4.77;3.87;;;;;;;;;;5090736;28;20474;-76
2022/07/09 04:51:13;;;;;;;5.63;4.03;;;;;;;;;;5091763;28;20905;-76
2022/07/09 04:53:40;;;;;;;5.47;4.37;;;;;;;;;;5091634;28;20799;-77
2022/07/09 04:56:07;;;;;;;6.90;3.80;;;;;;;;;;5091774;28;20802;-77
2022/07/09 04:58:36;;;;;;;6.63;3.97;;;;;;;;;;5093747;28;20423;-77
2022/07/09 05:01:04;;;;;;;6.83;4.10;;;;;;;;;;5093126;28;20465;-77
2022/07/09 05:03:31;;;;;;;4.77;4.07;;;;;;;;;;5087209;28;20485;-76
2022/07/09 05:06:00;;;;;;;5.13;4.03;;;;;;;;;;5091406;28;20520;-77
2022/07/09 05:08:27;;;;;;;4.63;3.60;;;;;;;;;;5094722;28;20439;-76
2022/07/09 05:10:54;;;;;;;4.90;3.87;;;;;;;;;;5094770;28;20446;-77
2022/07/09 05:13:21;;;;;;;5.50;4.40;;;;;;;;;;5095654;28;20442;-76
2022/07/09 05:15:48;;;;;;;5.60;4.10;;;;;;;;;;5095634;28;20463;-76
2022/07/09 05:18:16;;;;;;;5.37;4.20;;;;;;;;;;5095446;28;20449;-77
2022/07/09 05:20:43;;;;;;;5.07;4.10;;;;;;;;;;5097262;28;20772;-77
2022/07/09 05:23:11;;;;;;;5.40;4.20;;;;;;;;;;5097415;28;20449;-76
2022/07/09 05:25:39;;;;;;;7.73;4.67;;;;;;;;;;5090868;28;20520;-76
2022/07/09 05:28:06;;;;;;;6.93;4.47;;;;;;;;;;5091532;28;20446;-77
2022/07/09 05:30:36;;;;;;;4.73;4.07;;;;;;;;;;5094149;28;20954;-77
2022/07/09 05:33:04;;;;;;;6.27;5.67;;;;;;;;;;5094120;28;20443;-78
2022/07/09 05:35:31;;;;;;;6.63;5.93;;;;;;;;;;5074628;28;20487;-77
2022/07/09 05:37:58;;;;;;;7.10;4.80;;;;;;;;;;5074825;28;20948;-77
2022/07/09 05:40:26;;;;;;;5.93;5.43;;;;;;;;;;5075560;28;20467;-77
2022/07/09 05:42:54;;;;;;;6.80;5.37;;;;;;;;;;5090425;28;20474;-76
2022/07/09 05:45:21;;;;;;;14.30;6.37;;;;;;;;;;5091085;28;20979;-77
2022/07/09 05:47:48;;;;;;;11.40;6.17;;;;;;;;;;5094666;28;20458;-77
2022/07/09 05:50:15;;;;;;;7.70;5.40;;;;;;;;;;5093753;28;20450;-76
2022/07/09 05:52:43;;;;;;;8.00;5.80;;;;;;;;;;5094942;28;20435;-76
2022/07/09 05:55:10;;;;;;;6.90;5.93;;;;;;;;;;5095026;28;20465;-81
2022/07/09 05:57:38;;;;;;;6.03;5.30;;;;;;;;;;5094904;28;20454;-75
2022/07/09 06:00:07;;;;;;;8.90;6.10;;;;;;;;;;5096860;28;20900;-77
2022/07/09 06:02:34;;;;;;;6.50;5.50;;;;;;;;;;5096178;28;20504;-78
2022/07/09 06:05:01;;;;;;;8.47;5.20;;;;;;;;;;5088878;28;20477;-76
2022/07/09 06:07:28;;;;;;;11.07;6.10;;;;;;;;;;5090800;28;20455;-76
2022/07/09 06:09:56;;;;;;;10.07;7.10;;;;;;;;;;5093493;28;20441;-77
2022/07/09 06:12:23;;;;;;;10.33;8.47;;;;;;;;;;5093493;28;20443;-75
2022/07/09 06:14:52;;;;;;;11.57;7.90;;;;;;;;;;5094196;28;20435;-75
2022/07/09 06:17:19;;;;;;;10.47;6.47;;;;;;;;;;5093905;28;20461;-75
2022/07/09 06:19:46;;;;;;;8.50;6.10;;;;;;;;;;5094621;28;20466;-74
2022/07/09 06:22:13;;;;;;;7.60;6.83;;;;;;;;;;5096253;28;20443;-78
2022/07/09 06:24:40;;;;;;;6.50;5.90;;;;;;;;;;5096143;28;20475;-75
2022/07/09 06:27:07;;;;;;;7.23;6.33;;;;;;;;;;5090458;28;20534;-76
2022/07/09 06:29:35;;;;;;;7.57;5.80;;;;;;;;;;5089785;28;20900;-75
2022/07/09 06:32:03;;;;;;;10.57;4.77;;;;;;;;;;5092911;28;20815;-76
2022/07/09 06:34:30;;;;;;;5.90;5.30;;;;;;;;;;5093095;28;20532;-76
2022/07/09 06:36:58;;;;;;;6.57;5.30;;;;;;;;;;5093757;28;20447;-76
2022/07/09 06:42:06;;;;;;;7.67;5.73;;;;;;;;;;5093262;28;20952;-76
2022/07/09 06:44:34;;;;;;;5.67;4.60;;;;;;;;;;5095885;28;20569;-78
2022/07/09 06:47:01;;;;;;;5.93;4.43;;;;;;;;;;5096117;28;20470;-76
2022/07/09 06:49:30;;;;;;;7.67;4.67;;;;;;;;;;5090570;28;20519;-77
2022/07/09 06:51:57;;;;;;;4.60;3.60;;;;;;;;;;5089316;28;20555;-77
2022/07/09 06:54:25;;;;;;;5.10;3.70;;;;;;;;;;5091529;28;20444;-76
2022/07/09 06:56:52;;;;;;;6.03;3.20;;;;;;;;;;5093622;28;20494;-76
2022/07/09 06:59:22;;;;;;;7.70;2.90;;;;;;;;;;5093977;28;20447;-75
2022/07/09 07:01:49;;;;;;;3.43;2.90;;;;;;;;;;5094035;28;20436;-75
2022/07/09 07:04:16;;;;;;;3.73;2.63;;;;;;;;;;5092860;28;20840;-76
2022/07/09 07:06:46;;;;;;;3.93;2.60;;;;;;;;;;5095603;28;20974;-75
2022/07/09 07:09:13;;;;;;;5.20;2.80;;;;;;;;;;5095555;28;20440;-74
2022/07/09 07:11:41;;;;;;;3.47;2.10;;;;;;;;;;5090855;28;20527;-74
2022/07/09 07:14:08;;;;;;;2.57;2.10;;;;;;;;;;5089142;28;20431;-75
2022/07/09 07:16:35;;;;;;;4.70;2.80;;;;;;;;;;5091976;28;20451;-75
2022/07/09 07:19:02;;;;;;;10.53;4.80;;;;;;;;;;5092840;28;20444;-74
2022/07/09 07:21:29;;;;;;;5.77;4.80;;;;;;;;;;5098633;28;20443;-75
2022/07/09 07:23:58;;;;;;;5.93;4.50;;;;;;;;;;5100595;28;20436;-75
2022/07/09 07:26:25;;;;;;;9.37;4.53;;;;;;;;;;5095485;28;20892;-75
2022/07/09 07:28:54;;;;;;;6.97;5.03;;;;;;;;;;5093015;28;20436;-75
2022/07/09 07:31:22;;;;;;;7.73;5.30;;;;;;;;;;5085056;28;20466;-75
2022/07/09 07:33:50;;;;;;;6.17;4.43;;;;;;;;;;5084819;28;20432;-75
2022/07/09 07:36:17;;;;;;;5.00;4.00;;;;;;;;;;5088267;28;20483;-75
2022/07/09 07:38:45;;;;;;;8.50;4.30;;;;;;;;;;5088629;28;20432;-74
2022/07/09 07:41:16;;;;;;;5.87;4.30;;;;;;;;;;5088608;28;21033;-73
2022/07/09 07:43:43;;;;;;;7.37;5.00;;;;;;;;;;5089852;28;20478;-73
2022/07/09 07:46:10;;;;;;;7.23;5.27;;;;;;;;;;5088990;28;21015;-74
2022/07/09 07:48:37;;;;;;;10.93;5.60;;;;;;;;;;5090826;28;20489;-74
2022/07/09 07:51:05;;;;;;;7.20;5.40;;;;;;;;;;5089702;28;20796;-74
2022/07/09 07:53:32;;;;;;;7.33;5.03;;;;;;;;;;5084903;28;20439;-74
2022/07/09 07:55:59;;;;;;;7.10;4.90;;;;;;;;;;5084355;28;20458;-75
2022/07/09 07:58:28;;;;;;;9.00;5.30;;;;;;;;;;5087350;28;20442;-74
2022/07/09 08:00:55;;;;;;;8.00;5.67;;;;;;;;;;5087671;28;20882;-75
2022/07/09 08:03:22;;;;;;;7.30;5.17;;;;;;;;;;5090765;28;20520;-75
2022/07/09 08:05:50;;;;;;;7.63;5.43;;;;;;;;;;5092581;28;20525;-75
2022/07/09 08:08:18;;;;;;;5.70;4.77;;;;;;;;;;5091791;28;20857;-75
2022/07/09 08:10:46;;;;;;;7.00;3.70;;;;;;;;;;5092986;28;20439;-75
2022/07/09 08:13:13;;;;;;;5.20;3.10;;;;;;;;;;5094086;28;20443;-74
2022/07/09 08:15:41;;;;;;;4.13;2.90;;;;;;;;;;5089558;28;20494;-75
2022/07/09 08:18:12;;;;;;;3.07;2.73;;;;;;;;;;5087875;28;20439;-75
2022/07/09 08:20:39;;;;;;;2.70;2.17;;;;;;;;;;5090583;28;20467;-75
2022/07/09 08:23:07;;;;;;;2.57;2.37;;;;;;;;;;5091591;28;20526;-74
2022/07/09 08:25:34;;;;;;;2.97;2.10;;;;;;;;;;5091296;28;20486;-76
2022/07/09 08:28:01;;;;;;;2.70;2.00;;;;;;;;;;5092226;28;20801;-75
2022/07/09 08:30:29;;;;;;;2.50;2.00;;;;;;;;;;5089679;28;20443;-75
2022/07/09 08:32:57;;;;;;;3.13;1.97;;;;;;;;;;5077791;28;20495;-76
2022/07/09 08:35:25;;;;;;;2.27;1.60;;;;;;;;;;5080587;28;20562;-74
2022/07/09 08:37:53;;;;;;;2.10;1.87;;;;;;;;;;5085903;28;20438;-75
2022/07/09 08:40:20;;;;;;;2.77;1.90;;;;;;;;;;5086509;28;20831;-75
2022/07/09 08:42:48;;;;;;;1.70;1.60;;;;;;;;;;5081852;28;20464;-74
2022/07/09 08:45:17;;;;;;;2.07;1.67;;;;;;;;;;5078637;28;20582;-76
2022/07/09 08:47:44;;;;;;;2.00;1.80;;;;;;;;;;5088877;28;20443;-76
2022/07/09 08:50:15;;;;;;;4.53;1.90;;;;;;;;;;5072619;28;21032;-74
2022/07/09 08:52:43;;;;;;;3.77;1.77;;;;;;;;;;5083876;28;20467;-73
2022/07/09 08:55:10;;;;;;;10.33;7.93;;;;;;;;;;5083226;28;20466;-74
2022/07/09 08:57:38;;;;;;;2.90;2.30;;;;;;;;;;5075108;28;21628;-76
2022/07/09 09:00:06;;;;;;;2.60;2.30;;;;;;;;;;5066947;28;20440;-73
2022/07/09 09:02:36;;;;;;;3.67;2.30;;;;;;;;;;5087700;28;20453;-74
2022/07/09 09:05:07;;;;;;;2.40;1.90;;;;;;;;;;5089867;28;20481;-75
2022/07/09 09:07:35;;;;;;;3.90;1.83;;;;;;;;;;5082145;28;20464;-75
2022/07/09 09:10:03;;;;;;;3.27;1.97;;;;;;;;;;5081905;28;20474;-74
2022/07/09 09:12:30;;;;;;;3.27;1.93;;;;;;;;;;5073046;28;20439;-75
2022/07/09 09:14:57;;;;;;;2.60;2.10;;;;;;;;;;5086040;28;20447;-74
2022/07/09 09:17:25;;;;;;;2.33;1.67;;;;;;;;;;5086767;28;20440;-80
2022/07/09 09:19:52;;;;;;;2.40;2.20;;;;;;;;;;5089452;28;20462;-80
2022/07/09 09:22:19;;;;;;;2.33;1.87;;;;;;;;;;5090372;28;20443;-78
2022/07/09 09:24:53;;;;;;;3.20;2.00;;;;;;;;;;5078953;28;20476;-77
2022/07/09 09:27:29;;;;;;;1.90;1.80;;;;;;;;;;5070702;28;20982;-78
2022/07/09 09:29:58;;;;;;;1.90;1.80;;;;;;;;;;5078001;28;20462;-76
2022/07/09 09:32:26;;;;;;;3.03;2.43;;;;;;;;;;5092779;28;20891;-79
2022/07/09 09:34:53;;;;;;;2.57;2.37;;;;;;;;;;5092998;28;20459;-76
2022/07/09 09:37:28;;;;;;;2.20;1.80;;;;;;;;;;5087751;28;20427;-78
2022/07/09 09:39:56;;;;;;;5.53;2.37;;;;;;;;;;5086673;28;20518;-77
2022/07/09 09:42:26;;;;;;;4.13;2.20;;;;;;;;;;5076676;28;20450;-77
2022/07/09 09:44:53;;;;;;;2.47;2.27;;;;;;;;;;5069762;28;20480;-78
2022/07/09 09:47:24;;;;;;;2.23;1.93;;;;;;;;;;5070726;28;20440;-78
2022/07/09 09:49:51;;;;;;;2.60;1.70;;;;;;;;;;5071600;28;20428;-78
2022/07/09 09:52:20;;;;;;;2.80;1.67;;;;;;;;;;5076240;28;20459;-77
2022/07/09 09:54:48;;;;;;;2.07;1.80;;;;;;;;;;5096860;28;20474;-77
2022/07/09 09:57:18;;;;;;;2.53;2.00;;;;;;;;;;5096618;28;20820;-78
2022/07/09 09:59:46;;;;;;;2.80;1.50;;;;;;;;;;5091950;28;20807;-80
2022/07/09 10:02:14;;;;;;;2.13;1.70;;;;;;;;;;5089613;28;20447;-78
2022/07/09 10:04:42;;;;;;;2.80;1.60;;;;;;;;;;5091710;28;20446;-78
2022/07/09 10:07:09;;;;;;;2.00;1.50;;;;;;;;;;5092642;28;20742;-78
2022/07/09 10:09:37;;;;;;;2.10;1.33;;;;;;;;;;5094064;28;20458;-78
2022/07/09 10:12:04;;;;;;;1.73;1.30;;;;;;;;;;5094991;28;20467;-77
2022/07/09 10:14:34;;;;;;;1.30;1.20;;;;;;;;;;5093513;28;20446;-77
2022/07/09 10:17:16;;;;;;;2.87;1.37;;;;;;;;;;5096424;28;20443;-81
2022/07/09 10:19:53;;;;;;;3.03;1.13;;;;;;;;;;5075388;28;20525;-82
2022/07/09 10:22:20;;;;;;;1.90;1.47;;;;;;;;;;5084501;28;20803;-78
2022/07/09 10:24:48;;;;;;;1.60;1.50;;;;;;;;;;5088003;28;20457;-82
2022/07/09 10:27:15;;;;;;;2.13;1.50;;;;;;;;;;5092181;28;20526;-78
2022/07/09 10:29:55;;;;;;;2.23;1.20;;;;;;;;;;5090583;28;20777;-75
2022/07/09 10:32:25;;;;;;;1.90;1.57;;;;;;;;;;5072001;28;20498;-78
2022/07/09 10:34:58;;;;;;;1.50;1.40;;;;;;;;;;5072775;28;20470;-75
2022/07/09 10:37:33;;;;;;;2.70;1.57;;;;;;;;;;5074343;28;20441;-75
2022/07/09 10:40:06;;;;;;;1.80;1.53;;;;;;;;;;5095991;28;20439;-75
2022/07/09 10:42:33;;;;;;;3.10;1.77;;;;;;;;;;5095679;28;20435;-75
2022/07/09 10:45:02;;;;;;;2.90;1.30;;;;;;;;;;5091744;28;21241;-75
2022/07/09 10:47:38;;;;;;;1.40;1.20;;;;;;;;;;5088939;28;20871;-75
2022/07/09 10:50:05;;;;;;;1.70;1.60;;;;;;;;;;5080999;28;20444;-74
2022/07/09 10:52:33;;;;;;;2.33;1.73;;;;;;;;;;5072812;28;20444;-75
2022/07/09 10:55:00;;;;;;;1.53;1.43;;;;;;;;;;5073013;28;20468;-75
2022/07/09 10:57:27;;;;;;;3.33;1.43;;;;;;;;;;5086835;28;20435;-76
2022/07/09 10:59:54;;;;;;;1.83;1.60;;;;;;;;;;5092474;28;20917;-75
2022/07/09 11:02:23;;;;;;;1.83;1.60;;;;;;;;;;5074815;28;20444;-75
2022/07/09 11:04:51;;;;;;;2.13;1.93;;;;;;;;;;5075051;28;20443;-75
2022/07/09 11:07:22;;;;;;;1.87;1.77;;;;;;;;;;5077917;28;20485;-74
2022/07/09 11:09:50;;;;;;;2.33;1.50;;;;;;;;;;5082581;28;20435;-74
2022/07/09 11:12:17;;;;;;;2.87;1.57;;;;;;;;;;5091334;28;20870;-75
2022/07/09 11:14:45;;;;;;;1.70;1.60;;;;;;;;;;5072696;28;20556;-75
2022/07/09 11:17:15;;;;;;;2.37;1.60;;;;;;;;;;5077515;28;20462;-74
2022/07/09 11:19:44;;;;;;;1.77;1.60;;;;;;;;;;5080286;28;20491;-75
2022/07/09 11:22:11;;;;;;;2.50;1.40;;;;;;;;;;5086291;28;20462;-75
2022/07/09 11:24:39;;;;;;;1.57;1.47;;;;;;;;;;5087524;28;20517;-75
2022/07/09 11:27:06;;;;;;;2.73;1.40;;;;;;;;;;5094026;28;20485;-75
2022/07/09 11:29:34;;;;;;;3.13;1.60;;;;;;;;;;5088884;28;20466;-76
2022/07/09 11:32:01;;;;;;;2.30;1.50;;;;;;;;;;5086267;28;20451;-75
2022/07/09 11:34:30;;;;;;;2.00;1.40;;;;;;;;;;5090457;28;20927;-75
2022/07/09 11:36:59;;;;;;;1.50;1.40;;;;;;;;;;5078348;28;20873;-73
2022/07/09 11:39:27;;;;;;;1.50;1.30;;;;;;;;;;5071705;28;20535;-72
2022/07/09 11:41:54;;;;;;;2.30;1.40;;;;;;;;;;5072119;28;20544;-73
2022/07/09 11:44:22;;;;;;;2.80;1.60;;;;;;;;;;5072561;28;20534;-75
2022/07/09 11:47:05;;;;;;;1.67;1.37;;;;;;;;;;5089268;28;20491;-74
2022/07/09 11:49:34;;;;;;;2.17;1.50;;;;;;;;;;5094108;28;20435;-76
2022/07/09 11:52:02;;;;;;;2.97;1.70;;;;;;;;;;5090660;28;20466;-76
2022/07/09 11:54:32;;;;;;;2.30;1.67;;;;;;;;;;5087381;28;20439;-77
2022/07/09 11:56:59;;;;;;;1.87;1.77;;;;;;;;;;5087022;28;20945;-75
2022/07/09 11:59:27;;;;;;;2.67;1.77;;;;;;;;;;5071461;28;20440;-75
2022/07/09 12:01:55;;;;;;;2.47;1.90;;;;;;;;;;5070709;28;20868;-76
2022/07/09 12:04:23;;;;;;;1.73;1.63;;;;;;;;;;5071619;28;20916;-75
2022/07/09 12:06:50;;;;;;;4.37;1.90;;;;;;;;;;5072000;28;20567;-74
2022/07/09 12:09:28;;;;;;;3.43;1.70;;;;;;;;;;5086850;28;20459;-74
2022/07/09 12:11:55;;;;;;;1.93;1.63;;;;;;;;;;5089137;28;20437;-74
2022/07/09 12:14:23;;;;;;;2.20;1.90;;;;;;;;;;5087177;28;20450;-75
2022/07/09 12:16:50;;;;;;;2.00;1.80;;;;;;;;;;5091925;28;20458;-75
2022/07/09 12:19:17;;;;;;;2.50;2.30;;;;;;;;;;5091325;28;20497;-75
2022/07/09 12:21:44;;;;;;;2.30;2.10;;;;;;;;;;5092324;28;20440;-73
2022/07/09 12:24:12;;;;;;;3.43;2.40;;;;;;;;;;5090042;28;20811;-77
2022/07/09 12:26:40;;;;;;;2.77;2.00;;;;;;;;;;5068607;28;20488;-80
2022/07/09 12:29:10;;;;;;;3.17;1.80;;;;;;;;;;5072089;28;20460;-80
2022/07/09 12:31:38;;;;;;;3.47;2.30;;;;;;;;;;5073445;28;20472;-76
2022/07/09 12:34:06;;;;;;;1.90;1.70;;;;;;;;;;5081364;28;20508;-76
2022/07/09 12:36:34;;;;;;;2.13;1.90;;;;;;;;;;5087283;28;20534;-75
2022/07/09 12:39:01;;;;;;;3.47;1.93;;;;;;;;;;5088521;28;20462;-76
2022/07/09 12:41:28;;;;;;;2.50;1.97;;;;;;;;;;5091483;28;20439;-76
2022/07/09 12:43:57;;;;;;;2.57;2.13;;;;;;;;;;5072171;28;20471;-77
2022/07/09 12:46:24;;;;;;;2.43;2.07;;;;;;;;;;5070765;28;20556;-77
2022/07/09 12:48:51;;;;;;;3.10;2.30;;;;;;;;;;5071307;28;20446;-77
2022/07/09 12:51:18;;;;;;;5.57;2.67;;;;;;;;;;5072194;28;20452;-78
2022/07/09 12:53:45;;;;;;;3.13;2.40;;;;;;;;;;5073484;28;20444;-76
2022/07/09 12:56:13;;;;;;;2.97;2.77;;;;;;;;;;5079071;28;20469;-77
2022/07/09 12:58:40;;;;;;;4.07;2.40;;;;;;;;;;5085405;28;20948;-79
2022/07/09 13:01:08;;;;;;;3.60;2.77;;;;;;;;;;5085900;28;20539;-78
2022/07/09 13:03:36;;;;;;;2.50;2.30;;;;;;;;;;5083613;28;20536;-82
2022/07/09 13:06:03;;;;;;;3.43;2.60;;;;;;;;;;5069807;28;20492;-80
2022/07/09 13:08:30;;;;;;;4.63;2.43;;;;;;;;;;5071576;28;20445;-80
2022/07/09 13:10:58;;;;;;;3.80;2.63;;;;;;;;;;5070657;28;21210;-78
2022/07/09 13:13:25;;;;;;;4.40;3.47;;;;;;;;;;5072483;28;20442;-78
2022/07/09 13:15:52;;;;;;;3.73;3.30;;;;;;;;;;5070789;28;20507;-76
2022/07/09 13:18:20;;;;;;;7.40;4.33;;;;;;;;;;5076174;28;20530;-75
2022/07/09 13:20:48;;;;;;;5.23;3.97;;;;;;;;;;5083327;28;20459;-76
2022/07/09 13:23:15;;;;;;;5.83;4.70;;;;;;;;;;5087050;28;20435;-76
2022/07/09 13:25:42;;;;;;;5.50;5.00;;;;;;;;;;5088169;28;20491;-77
2022/07/09 13:28:09;;;;;;;6.50;5.47;;;;;;;;;;5073915;28;20436;-80
2022/07/09 13:30:36;;;;;;;7.00;5.33;;;;;;;;;;5074783;28;20432;-78
2022/07/09 13:33:04;;;;;;;6.33;5.73;;;;;;;;;;5075469;28;20444;-81
2022/07/09 13:35:32;;;;;;;6.50;5.90;;;;;;;;;;5075355;28;20515;-78
2022/07/09 13:37:59;;;;;;;6.37;5.77;;;;;;;;;;5076717;28;20843;-80
2022/07/09 13:40:27;;;;;;;8.37;5.40;;;;;;;;;;5090377;28;20447;-77
2022/07/09 13:42:54;;;;;;;8.23;6.63;;;;;;;;;;5090432;28;20427;-77
2022/07/09 13:45:21;;;;;;;11.60;6.27;;;;;;;;;;5091102;28;20457;-78
2022/07/09 13:47:48;;;;;;;8.87;6.47;;;;;;;;;;5094086;28;20992;-78
2022/07/09 13:50:16;;;;;;;7.73;6.90;;;;;;;;;;5093870;28;20948;-77
2022/07/09 13:52:44;;;;;;;7.47;5.90;;;;;;;;;;5094775;28;20450;-77
2022/07/09 13:55:11;;;;;;;6.43;5.80;;;;;;;;;;5095023;28;20834;-77
2022/07/09 13:57:39;;;;;;;7.40;6.40;;;;;;;;;;5085683;28;20486;-78
2022/07/09 14:00:07;;;;;;;7.67;6.67;;;;;;;;;;5096532;28;20488;-77
2022/07/09 14:02:34;;;;;;;8.00;6.30;;;;;;;;;;5095664;28;20471;-77
2022/07/09 14:05:03;;;;;;;6.63;6.03;;;;;;;;;;5090097;28;20613;-77
2022/07/09 14:07:30;;;;;;;9.53;6.70;;;;;;;;;;5089440;28;20841;-76
2022/07/09 14:09:59;;;;;;;7.50;6.80;;;;;;;;;;5094043;28;20445;-78
2022/07/09 14:12:26;;;;;;;8.53;7.73;;;;;;;;;;5083974;28;20955;-76
2022/07/09 14:14:53;;;;;;;8.17;7.33;;;;;;;;;;5073755;28;20506;-76
2022/07/09 14:17:21;;;;;;;9.70;7.67;;;;;;;;;;5074663;28;20470;-76
2022/07/09 14:19:48;;;;;;;8.37;7.57;;;;;;;;;;5079234;28;20516;-76
2022/07/09 14:22:15;;;;;;;7.97;7.27;;;;;;;;;;5096169;28;20442;-75
2022/07/09 14:24:43;;;;;;;9.10;7.97;;;;;;;;;;5095979;28;20928;-76
2022/07/09 14:27:12;;;;;;;9.90;9.00;;;;;;;;;;5089886;28;20562;-76
2022/07/09 14:29:39;;;;;;;8.43;7.27;;;;;;;;;;5090412;28;20427;-76
2022/07/09 14:32:08;;;;;;;7.80;7.20;;;;;;;;;;5073619;28;20475;-77
2022/07/09 14:34:35;;;;;;;9.30;8.47;;;;;;;;;;5072838;28;20444;-77
2022/07/09 14:37:03;;;;;;;8.23;7.53;;;;;;;;;;5070095;28;20462;-80
2022/07/09 14:39:30;;;;;;;7.43;6.63;;;;;;;;;;5073912;28;20531;-77
2022/07/09 14:41:58;;;;;;;10.27;8.70;;;;;;;;;;5073854;28;20448;-78
2022/07/09 14:44:28;;;;;;;8.27;7.40;;;;;;;;;;5075606;28;20444;-81
2022/07/09 14:46:58;;;;;;;7.70;7.00;;;;;;;;;;5074137;28;20479;-78
2022/07/09 14:49:25;;;;;;;7.27;5.43;;;;;;;;;;5088738;28;20436;-79